sensor_id;sensor_type;location;lat;lon;timestamp;P1;durP1;ratioP1;P2;durP2;ratioP2
77217;SDS011;66214;51.302;17.068;2023-11-19T00:01:04;36.60;;;15.40;;
77217;SDS011;66214;51.302;17.068;2023-11-19T00:03:53;33.40;;;15.90;;
77217;SDS011;66214;51.302;17.068;2023-11-19T00:06:21;32.70;;;14.60;;
77217;SDS011;66214;51.302;17.068;2023-11-19T00:08:49;31.10;;;14.10;;
77217;SDS011;66214;51.302;17.068;2023-11-19T00:11:18;30.20;;;14.40;;
77217;SDS011;66214;51.302;17.068;2023-11-19T00:13:46;26.60;;;13.60;;
77217;SDS011;66214;51.302;17.068;2023-11-19T00:16:14;27.40;;;12.90;;
77217;SDS011;66214;51.302;17.068;2023-11-19T00:18:42;26.10;;;11.80;;
77217;SDS011;66214;51.302;17.068;2023-11-19T00:21:10;26.90;;;13.00;;
77217;SDS011;66214;51.302;17.068;2023-11-19T00:23:38;25.50;;;11.60;;
77217;SDS011;66214;51.302;17.068;2023-11-19T00:26:06;31.60;;;15.10;;
77217;SDS011;66214;51.302;17.068;2023-11-19T00:28:34;31.60;;;14.40;;
77217;SDS011;66214;51.302;17.068;2023-11-19T00:31:05;27.90;;;12.80;;
77217;SDS011;66214;51.302;17.068;2023-11-19T00:33:33;30.00;;;12.50;;
77217;SDS011;66214;51.302;17.068;2023-11-19T00:36:01;26.10;;;11.70;;
77217;SDS011;66214;51.302;17.068;2023-11-19T00:38:30;32.20;;;14.00;;
77217;SDS011;66214;51.302;17.068;2023-11-19T00:40:58;30.80;;;13.90;;
77217;SDS011;66214;51.302;17.068;2023-11-19T00:43:27;33.60;;;14.70;;
77217;SDS011;66214;51.302;17.068;2023-11-19T00:49:22;26.20;;;13.10;;
77217;SDS011;66214;51.302;17.068;2023-11-19T00:51:50;23.40;;;10.90;;
77217;SDS011;66214;51.302;17.068;2023-11-19T00:54:18;22.00;;;10.10;;
77217;SDS011;66214;51.302;17.068;2023-11-19T00:56:46;25.90;;;12.40;;
77217;SDS011;66214;51.302;17.068;2023-11-19T00:59:14;26.60;;;11.40;;
77217;SDS011;66214;51.302;17.068;2023-11-19T01:01:43;29.90;;;14.10;;
77217;SDS011;66214;51.302;17.068;2023-11-19T01:04:11;30.60;;;13.90;;
77217;SDS011;66214;51.302;17.068;2023-11-19T01:06:39;20.40;;;9.00;;
77217;SDS011;66214;51.302;17.068;2023-11-19T01:09:08;31.70;;;15.60;;
77217;SDS011;66214;51.302;17.068;2023-11-19T01:11:37;27.30;;;13.20;;
77217;SDS011;66214;51.302;17.068;2023-11-19T01:14:05;28.00;;;13.60;;
77217;SDS011;66214;51.302;17.068;2023-11-19T01:16:33;26.10;;;12.50;;
77217;SDS011;66214;51.302;17.068;2023-11-19T01:19:01;20.30;;;9.00;;
77217;SDS011;66214;51.302;17.068;2023-11-19T01:21:33;27.50;;;13.40;;
77217;SDS011;66214;51.302;17.068;2023-11-19T01:27:29;27.50;;;12.80;;
77217;SDS011;66214;51.302;17.068;2023-11-19T01:29:59;22.90;;;10.50;;
77217;SDS011;66214;51.302;17.068;2023-11-19T01:32:30;29.60;;;13.70;;
77217;SDS011;66214;51.302;17.068;2023-11-19T01:35:03;18.30;;;8.30;;
77217;SDS011;66214;51.302;17.068;2023-11-19T01:37:35;24.70;;;11.80;;
77217;SDS011;66214;51.302;17.068;2023-11-19T01:40:05;24.60;;;11.20;;
77217;SDS011;66214;51.302;17.068;2023-11-19T01:42:37;26.50;;;10.90;;
77217;SDS011;66214;51.302;17.068;2023-11-19T01:45:07;30.10;;;13.90;;
77217;SDS011;66214;51.302;17.068;2023-11-19T01:47:36;30.50;;;12.80;;
77217;SDS011;66214;51.302;17.068;2023-11-19T01:50:06;28.70;;;13.90;;
77217;SDS011;66214;51.302;17.068;2023-11-19T01:52:36;24.20;;;11.20;;
77217;SDS011;66214;51.302;17.068;2023-11-19T01:55:07;23.50;;;9.90;;
77217;SDS011;66214;51.302;17.068;2023-11-19T01:57:36;24.30;;;11.60;;
77217;SDS011;66214;51.302;17.068;2023-11-19T02:00:07;29.50;;;13.50;;
77217;SDS011;66214;51.302;17.068;2023-11-19T02:02:40;25.00;;;10.00;;
77217;SDS011;66214;51.302;17.068;2023-11-19T02:05:12;30.70;;;13.40;;
77217;SDS011;66214;51.302;17.068;2023-11-19T02:07:41;27.90;;;12.60;;
77217;SDS011;66214;51.302;17.068;2023-11-19T02:10:09;29.50;;;13.50;;
77217;SDS011;66214;51.302;17.068;2023-11-19T02:12:42;25.50;;;11.50;;
77217;SDS011;66214;51.302;17.068;2023-11-19T02:15:13;26.10;;;11.60;;
77217;SDS011;66214;51.302;17.068;2023-11-19T02:17:41;20.50;;;9.30;;
77217;SDS011;66214;51.302;17.068;2023-11-19T02:23:30;32.50;;;12.00;;
77217;SDS011;66214;51.302;17.068;2023-11-19T02:28:57;26.60;;;10.90;;
77217;SDS011;66214;51.302;17.068;2023-11-19T02:31:25;21.30;;;8.90;;
77217;SDS011;66214;51.302;17.068;2023-11-19T02:33:55;24.50;;;10.50;;
77217;SDS011;66214;51.302;17.068;2023-11-19T02:36:23;25.90;;;11.50;;
77217;SDS011;66214;51.302;17.068;2023-11-19T02:38:51;28.40;;;12.40;;
77217;SDS011;66214;51.302;17.068;2023-11-19T02:41:19;21.90;;;10.20;;
77217;SDS011;66214;51.302;17.068;2023-11-19T02:43:47;24.10;;;10.30;;
77217;SDS011;66214;51.302;17.068;2023-11-19T02:49:28;29.00;;;13.30;;
77217;SDS011;66214;51.302;17.068;2023-11-19T02:51:56;24.50;;;10.80;;
77217;SDS011;66214;51.302;17.068;2023-11-19T02:54:27;24.50;;;10.70;;
77217;SDS011;66214;51.302;17.068;2023-11-19T02:56:55;25.40;;;11.50;;
77217;SDS011;66214;51.302;17.068;2023-11-19T02:59:27;22.10;;;10.30;;
77217;SDS011;66214;51.302;17.068;2023-11-19T03:01:57;26.30;;;11.40;;
77217;SDS011;66214;51.302;17.068;2023-11-19T03:04:27;20.50;;;8.30;;
77217;SDS011;66214;51.302;17.068;2023-11-19T03:06:56;27.10;;;12.60;;
77217;SDS011;66214;51.302;17.068;2023-11-19T03:09:24;29.90;;;12.40;;
77217;SDS011;66214;51.302;17.068;2023-11-19T03:11:52;26.20;;;11.70;;
77217;SDS011;66214;51.302;17.068;2023-11-19T03:14:20;26.00;;;11.30;;
77217;SDS011;66214;51.302;17.068;2023-11-19T03:20:15;25.40;;;10.90;;
77217;SDS011;66214;51.302;17.068;2023-11-19T03:22:44;28.40;;;11.50;;
77217;SDS011;66214;51.302;17.068;2023-11-19T03:25:12;29.40;;;13.00;;
77217;SDS011;66214;51.302;17.068;2023-11-19T03:27:40;27.20;;;11.00;;
77217;SDS011;66214;51.302;17.068;2023-11-19T03:30:11;30.50;;;12.40;;
77217;SDS011;66214;51.302;17.068;2023-11-19T03:32:39;27.40;;;11.30;;
77217;SDS011;66214;51.302;17.068;2023-11-19T03:38:27;28.70;;;12.60;;
77217;SDS011;66214;51.302;17.068;2023-11-19T03:40:55;24.30;;;10.70;;
77217;SDS011;66214;51.302;17.068;2023-11-19T03:43:23;28.70;;;13.20;;
77217;SDS011;66214;51.302;17.068;2023-11-19T03:49:19;24.80;;;11.00;;
77217;SDS011;66214;51.302;17.068;2023-11-19T03:51:47;26.90;;;12.50;;
77217;SDS011;66214;51.302;17.068;2023-11-19T03:54:15;22.80;;;9.80;;
77217;SDS011;66214;51.302;17.068;2023-11-19T03:56:43;22.90;;;11.00;;
77217;SDS011;66214;51.302;17.068;2023-11-19T03:59:11;27.60;;;11.60;;
77217;SDS011;66214;51.302;17.068;2023-11-19T04:01:39;28.10;;;11.90;;
77217;SDS011;66214;51.302;17.068;2023-11-19T04:04:07;30.40;;;12.30;;
77217;SDS011;66214;51.302;17.068;2023-11-19T04:06:35;25.20;;;10.40;;
77217;SDS011;66214;51.302;17.068;2023-11-19T04:09:03;27.30;;;13.00;;
77217;SDS011;66214;51.302;17.068;2023-11-19T04:11:32;26.30;;;12.20;;
77217;SDS011;66214;51.302;17.068;2023-11-19T04:14:00;17.70;;;7.90;;
77217;SDS011;66214;51.302;17.068;2023-11-19T04:16:28;30.00;;;11.60;;
77217;SDS011;66214;51.302;17.068;2023-11-19T04:18:56;30.30;;;12.90;;
77217;SDS011;66214;51.302;17.068;2023-11-19T04:21:25;22.10;;;9.10;;
77217;SDS011;66214;51.302;17.068;2023-11-19T04:23:53;23.40;;;10.20;;
77217;SDS011;66214;51.302;17.068;2023-11-19T04:26:21;24.00;;;9.80;;
77217;SDS011;66214;51.302;17.068;2023-11-19T04:28:49;24.20;;;10.70;;
77217;SDS011;66214;51.302;17.068;2023-11-19T04:31:17;19.50;;;8.50;;
77217;SDS011;66214;51.302;17.068;2023-11-19T04:33:46;26.00;;;10.70;;
77217;SDS011;66214;51.302;17.068;2023-11-19T04:36:18;26.40;;;11.30;;
77217;SDS011;66214;51.302;17.068;2023-11-19T04:38:46;24.30;;;10.10;;
77217;SDS011;66214;51.302;17.068;2023-11-19T04:41:14;29.50;;;12.80;;
77217;SDS011;66214;51.302;17.068;2023-11-19T04:43:42;19.80;;;8.00;;
77217;SDS011;66214;51.302;17.068;2023-11-19T04:46:11;17.40;;;7.90;;
77217;SDS011;66214;51.302;17.068;2023-11-19T04:48:39;24.90;;;10.80;;
77217;SDS011;66214;51.302;17.068;2023-11-19T04:51:07;21.00;;;9.00;;
77217;SDS011;66214;51.302;17.068;2023-11-19T04:53:37;23.00;;;9.70;;
77217;SDS011;66214;51.302;17.068;2023-11-19T04:56:09;18.00;;;7.20;;
77217;SDS011;66214;51.302;17.068;2023-11-19T04:58:38;21.40;;;8.30;;
77217;SDS011;66214;51.302;17.068;2023-11-19T05:03:56;24.70;;;10.10;;
77217;SDS011;66214;51.302;17.068;2023-11-19T05:06:31;17.70;;;7.10;;
77217;SDS011;66214;51.302;17.068;2023-11-19T05:09:01;23.20;;;9.20;;
77217;SDS011;66214;51.302;17.068;2023-11-19T05:11:34;24.20;;;10.10;;
77217;SDS011;66214;51.302;17.068;2023-11-19T05:14:05;29.50;;;11.50;;
77217;SDS011;66214;51.302;17.068;2023-11-19T05:16:35;23.20;;;9.90;;
77217;SDS011;66214;51.302;17.068;2023-11-19T05:19:04;17.10;;;7.40;;
77217;SDS011;66214;51.302;17.068;2023-11-19T05:21:58;18.80;;;8.10;;
77217;SDS011;66214;51.302;17.068;2023-11-19T05:24:26;18.10;;;7.30;;
77217;SDS011;66214;51.302;17.068;2023-11-19T05:26:54;20.20;;;9.50;;
77217;SDS011;66214;51.302;17.068;2023-11-19T05:29:24;21.70;;;8.60;;
77217;SDS011;66214;51.302;17.068;2023-11-19T05:31:52;19.80;;;7.70;;
77217;SDS011;66214;51.302;17.068;2023-11-19T05:34:20;23.40;;;9.70;;
77217;SDS011;66214;51.302;17.068;2023-11-19T05:36:48;18.20;;;8.20;;
77217;SDS011;66214;51.302;17.068;2023-11-19T05:42:47;18.20;;;8.10;;
77217;SDS011;66214;51.302;17.068;2023-11-19T05:45:15;18.10;;;8.40;;
77217;SDS011;66214;51.302;17.068;2023-11-19T05:47:43;17.50;;;8.00;;
77217;SDS011;66214;51.302;17.068;2023-11-19T05:50:11;18.20;;;8.00;;
77217;SDS011;66214;51.302;17.068;2023-11-19T05:52:39;21.50;;;9.10;;
77217;SDS011;66214;51.302;17.068;2023-11-19T05:55:07;21.40;;;8.90;;
77217;SDS011;66214;51.302;17.068;2023-11-19T05:57:37;21.40;;;8.70;;
77217;SDS011;66214;51.302;17.068;2023-11-19T06:00:11;18.40;;;8.30;;
77217;SDS011;66214;51.302;17.068;2023-11-19T06:02:42;19.00;;;8.80;;
77217;SDS011;66214;51.302;17.068;2023-11-19T06:05:10;23.00;;;9.50;;
77217;SDS011;66214;51.302;17.068;2023-11-19T06:07:38;22.30;;;9.90;;
77217;SDS011;66214;51.302;17.068;2023-11-19T06:10:07;15.50;;;7.00;;
77217;SDS011;66214;51.302;17.068;2023-11-19T06:12:37;17.20;;;7.60;;
77217;SDS011;66214;51.302;17.068;2023-11-19T06:15:07;22.10;;;9.70;;
77217;SDS011;66214;51.302;17.068;2023-11-19T06:17:37;20.10;;;9.60;;
77217;SDS011;66214;51.302;17.068;2023-11-19T06:20:07;24.90;;;10.20;;
77217;SDS011;66214;51.302;17.068;2023-11-19T06:22:36;23.40;;;10.90;;
77217;SDS011;66214;51.302;17.068;2023-11-19T06:25:04;21.60;;;9.90;;
77217;SDS011;66214;51.302;17.068;2023-11-19T06:27:35;15.90;;;7.70;;
77217;SDS011;66214;51.302;17.068;2023-11-19T06:30:03;19.00;;;8.90;;
77217;SDS011;66214;51.302;17.068;2023-11-19T06:32:32;19.00;;;8.00;;
77217;SDS011;66214;51.302;17.068;2023-11-19T06:35:00;18.50;;;7.10;;
77217;SDS011;66214;51.302;17.068;2023-11-19T06:37:28;22.80;;;10.10;;
77217;SDS011;66214;51.302;17.068;2023-11-19T06:39:56;20.90;;;9.50;;
77217;SDS011;66214;51.302;17.068;2023-11-19T06:42:25;21.10;;;9.00;;
77217;SDS011;66214;51.302;17.068;2023-11-19T06:44:53;21.80;;;9.70;;
77217;SDS011;66214;51.302;17.068;2023-11-19T06:47:21;16.80;;;7.30;;
77217;SDS011;66214;51.302;17.068;2023-11-19T06:49:49;21.00;;;9.90;;
77217;SDS011;66214;51.302;17.068;2023-11-19T06:52:17;18.00;;;8.30;;
77217;SDS011;66214;51.302;17.068;2023-11-19T06:54:45;17.70;;;7.70;;
77217;SDS011;66214;51.302;17.068;2023-11-19T06:57:14;22.90;;;10.00;;
77217;SDS011;66214;51.302;17.068;2023-11-19T06:59:42;23.20;;;10.10;;
77217;SDS011;66214;51.302;17.068;2023-11-19T07:02:11;23.50;;;10.50;;
77217;SDS011;66214;51.302;17.068;2023-11-19T07:04:39;17.40;;;7.50;;
77217;SDS011;66214;51.302;17.068;2023-11-19T07:07:07;21.70;;;10.10;;
77217;SDS011;66214;51.302;17.068;2023-11-19T07:09:35;20.50;;;9.80;;
77217;SDS011;66214;51.302;17.068;2023-11-19T07:12:05;18.80;;;8.90;;
77217;SDS011;66214;51.302;17.068;2023-11-19T07:14:33;19.30;;;8.60;;
77217;SDS011;66214;51.302;17.068;2023-11-19T07:17:02;21.90;;;9.30;;
77217;SDS011;66214;51.302;17.068;2023-11-19T07:19:30;20.60;;;8.70;;
77217;SDS011;66214;51.302;17.068;2023-11-19T07:22:00;22.00;;;9.10;;
77217;SDS011;66214;51.302;17.068;2023-11-19T07:24:28;14.00;;;5.60;;
77217;SDS011;66214;51.302;17.068;2023-11-19T07:26:56;17.60;;;7.70;;
77217;SDS011;66214;51.302;17.068;2023-11-19T07:29:24;19.20;;;9.30;;
77217;SDS011;66214;51.302;17.068;2023-11-19T07:31:53;18.20;;;8.40;;
77217;SDS011;66214;51.302;17.068;2023-11-19T07:34:21;21.50;;;9.10;;
77217;SDS011;66214;51.302;17.068;2023-11-19T07:36:50;21.00;;;9.40;;
77217;SDS011;66214;51.302;17.068;2023-11-19T07:39:19;21.70;;;9.50;;
77217;SDS011;66214;51.302;17.068;2023-11-19T07:41:51;20.60;;;9.20;;
77217;SDS011;66214;51.302;17.068;2023-11-19T07:44:19;20.60;;;9.10;;
77217;SDS011;66214;51.302;17.068;2023-11-19T07:46:48;19.30;;;8.60;;
77217;SDS011;66214;51.302;17.068;2023-11-19T07:49:17;16.70;;;8.40;;
77217;SDS011;66214;51.302;17.068;2023-11-19T07:51:45;18.80;;;6.90;;
77217;SDS011;66214;51.302;17.068;2023-11-19T07:57:32;21.00;;;8.90;;
77217;SDS011;66214;51.302;17.068;2023-11-19T08:00:00;16.10;;;7.50;;
77217;SDS011;66214;51.302;17.068;2023-11-19T08:02:29;18.20;;;9.00;;
77217;SDS011;66214;51.302;17.068;2023-11-19T08:04:57;19.40;;;9.60;;
77217;SDS011;66214;51.302;17.068;2023-11-19T08:07:26;19.90;;;9.60;;
77217;SDS011;66214;51.302;17.068;2023-11-19T08:09:54;20.00;;;9.00;;
77217;SDS011;66214;51.302;17.068;2023-11-19T08:12:22;20.70;;;10.10;;
77217;SDS011;66214;51.302;17.068;2023-11-19T08:14:50;20.00;;;8.90;;
77217;SDS011;66214;51.302;17.068;2023-11-19T08:17:19;16.90;;;7.80;;
77217;SDS011;66214;51.302;17.068;2023-11-19T08:19:47;14.50;;;6.60;;
77217;SDS011;66214;51.302;17.068;2023-11-19T08:22:15;17.60;;;7.50;;
77217;SDS011;66214;51.302;17.068;2023-11-19T08:24:44;15.90;;;7.40;;
77217;SDS011;66214;51.302;17.068;2023-11-19T08:27:12;19.30;;;8.30;;
77217;SDS011;66214;51.302;17.068;2023-11-19T08:29:40;20.30;;;8.60;;
77217;SDS011;66214;51.302;17.068;2023-11-19T08:32:08;15.60;;;6.60;;
77217;SDS011;66214;51.302;17.068;2023-11-19T08:34:38;15.50;;;6.80;;
77217;SDS011;66214;51.302;17.068;2023-11-19T08:37:07;15.90;;;7.20;;
77217;SDS011;66214;51.302;17.068;2023-11-19T08:39:35;15.00;;;6.80;;
77217;SDS011;66214;51.302;17.068;2023-11-19T08:42:06;15.30;;;7.00;;
77217;SDS011;66214;51.302;17.068;2023-11-19T08:44:34;15.00;;;6.00;;
77217;SDS011;66214;51.302;17.068;2023-11-19T08:47:02;19.60;;;8.40;;
77217;SDS011;66214;51.302;17.068;2023-11-19T08:49:30;17.40;;;7.90;;
77217;SDS011;66214;51.302;17.068;2023-11-19T08:52:00;17.40;;;8.50;;
77217;SDS011;66214;51.302;17.068;2023-11-19T08:54:28;15.80;;;7.90;;
77217;SDS011;66214;51.302;17.068;2023-11-19T08:56:56;17.80;;;8.30;;
77217;SDS011;66214;51.302;17.068;2023-11-19T08:59:25;20.60;;;9.50;;
77217;SDS011;66214;51.302;17.068;2023-11-19T09:01:53;21.30;;;9.60;;
77217;SDS011;66214;51.302;17.068;2023-11-19T09:04:21;22.00;;;9.70;;
77217;SDS011;66214;51.302;17.068;2023-11-19T09:06:52;22.30;;;10.00;;
77217;SDS011;66214;51.302;17.068;2023-11-19T09:09:20;20.00;;;9.20;;
77217;SDS011;66214;51.302;17.068;2023-11-19T09:11:48;17.30;;;7.40;;
77217;SDS011;66214;51.302;17.068;2023-11-19T09:14:16;20.70;;;9.50;;
77217;SDS011;66214;51.302;17.068;2023-11-19T09:16:46;18.30;;;8.10;;
77217;SDS011;66214;51.302;17.068;2023-11-19T09:22:40;19.30;;;7.50;;
77217;SDS011;66214;51.302;17.068;2023-11-19T09:25:08;17.90;;;8.10;;
77217;SDS011;66214;51.302;17.068;2023-11-19T09:27:36;21.80;;;9.40;;
77217;SDS011;66214;51.302;17.068;2023-11-19T09:30:05;17.80;;;8.30;;
77217;SDS011;66214;51.302;17.068;2023-11-19T11:03:57;16.00;;;7.40;;
77217;SDS011;66214;51.302;17.068;2023-11-19T11:06:28;15.80;;;7.60;;
77217;SDS011;66214;51.302;17.068;2023-11-19T11:08:58;15.40;;;5.80;;
77217;SDS011;66214;51.302;17.068;2023-11-19T11:11:26;13.70;;;6.10;;
77217;SDS011;66214;51.302;17.068;2023-11-19T11:13:54;13.80;;;6.50;;
77217;SDS011;66214;51.302;17.068;2023-11-19T11:16:24;14.30;;;6.10;;
77217;SDS011;66214;51.302;17.068;2023-11-19T11:18:53;16.10;;;6.80;;
77217;SDS011;66214;51.302;17.068;2023-11-19T11:21:24;8.30;;;3.90;;
77217;SDS011;66214;51.302;17.068;2023-11-19T11:24:21;12.20;;;6.20;;
77217;SDS011;66214;51.302;17.068;2023-11-19T11:36:22;11.00;;;5.00;;
77217;SDS011;66214;51.302;17.068;2023-11-19T11:38:50;11.40;;;5.30;;
77217;SDS011;66214;51.302;17.068;2023-11-19T11:41:21;11.00;;;5.00;;
77217;SDS011;66214;51.302;17.068;2023-11-19T11:43:52;8.60;;;3.70;;
77217;SDS011;66214;51.302;17.068;2023-11-19T11:49:27;12.80;;;6.10;;
77217;SDS011;66214;51.302;17.068;2023-11-19T11:51:58;13.50;;;5.80;;
77217;SDS011;66214;51.302;17.068;2023-11-19T11:54:28;12.80;;;5.00;;
77217;SDS011;66214;51.302;17.068;2023-11-19T11:57:06;12.60;;;5.40;;
77217;SDS011;66214;51.302;17.068;2023-11-19T11:59:47;11.20;;;4.90;;
77217;SDS011;66214;51.302;17.068;2023-11-19T12:02:19;10.40;;;3.90;;
77217;SDS011;66214;51.302;17.068;2023-11-19T12:04:52;11.60;;;5.10;;
77217;SDS011;66214;51.302;17.068;2023-11-19T12:07:22;8.50;;;3.20;;
77217;SDS011;66214;51.302;17.068;2023-11-19T12:10:12;10.30;;;4.70;;
77217;SDS011;66214;51.302;17.068;2023-11-19T12:12:40;13.30;;;6.70;;
77217;SDS011;66214;51.302;17.068;2023-11-19T12:15:09;13.10;;;5.50;;
77217;SDS011;66214;51.302;17.068;2023-11-19T12:17:51;11.40;;;5.10;;
77217;SDS011;66214;51.302;17.068;2023-11-19T12:20:21;12.10;;;5.20;;
77217;SDS011;66214;51.302;17.068;2023-11-19T12:22:52;9.80;;;3.70;;
77217;SDS011;66214;51.302;17.068;2023-11-19T12:25:21;11.90;;;5.10;;
77217;SDS011;66214;51.302;17.068;2023-11-19T12:27:51;10.50;;;4.90;;
77217;SDS011;66214;51.302;17.068;2023-11-19T12:30:24;11.20;;;4.60;;
77217;SDS011;66214;51.302;17.068;2023-11-19T12:32:54;10.30;;;5.70;;
77217;SDS011;66214;51.302;17.068;2023-11-19T12:35:23;10.80;;;4.90;;
77217;SDS011;66214;51.302;17.068;2023-11-19T12:37:52;9.20;;;4.40;;
77217;SDS011;66214;51.302;17.068;2023-11-19T12:40:24;9.20;;;3.70;;
77217;SDS011;66214;51.302;17.068;2023-11-19T12:42:54;10.80;;;5.40;;
77217;SDS011;66214;51.302;17.068;2023-11-19T12:45:23;12.50;;;5.50;;
77217;SDS011;66214;51.302;17.068;2023-11-19T12:48:08;8.00;;;3.40;;
77217;SDS011;66214;51.302;17.068;2023-11-19T12:50:55;10.50;;;5.90;;
77217;SDS011;66214;51.302;17.068;2023-11-19T12:53:26;8.10;;;3.70;;
77217;SDS011;66214;51.302;17.068;2023-11-19T12:56:07;10.20;;;4.90;;
77217;SDS011;66214;51.302;17.068;2023-11-19T12:58:36;12.10;;;5.30;;
77217;SDS011;66214;51.302;17.068;2023-11-19T13:01:06;11.20;;;4.70;;
77217;SDS011;66214;51.302;17.068;2023-11-19T13:03:36;12.20;;;5.20;;
77217;SDS011;66214;51.302;17.068;2023-11-19T13:06:08;6.40;;;2.70;;
77217;SDS011;66214;51.302;17.068;2023-11-19T13:08:45;9.30;;;4.50;;
77217;SDS011;66214;51.302;17.068;2023-11-19T13:11:34;10.90;;;4.10;;
77217;SDS011;66214;51.302;17.068;2023-11-19T13:14:05;9.00;;;4.10;;
77217;SDS011;66214;51.302;17.068;2023-11-19T13:16:37;10.20;;;5.50;;
77217;SDS011;66214;51.302;17.068;2023-11-19T13:19:06;7.50;;;3.40;;
77217;SDS011;66214;51.302;17.068;2023-11-19T13:21:34;8.00;;;3.90;;
77217;SDS011;66214;51.302;17.068;2023-11-19T13:24:02;8.00;;;3.60;;
77217;SDS011;66214;51.302;17.068;2023-11-19T13:26:31;9.50;;;3.90;;
77217;SDS011;66214;51.302;17.068;2023-11-19T13:28:59;9.80;;;4.30;;
77217;SDS011;66214;51.302;17.068;2023-11-19T13:31:28;10.60;;;4.80;;
77217;SDS011;66214;51.302;17.068;2023-11-19T13:33:57;10.70;;;5.20;;
77217;SDS011;66214;51.302;17.068;2023-11-19T13:36:26;13.20;;;6.70;;
77217;SDS011;66214;51.302;17.068;2023-11-19T13:38:54;12.80;;;6.20;;
77217;SDS011;66214;51.302;17.068;2023-11-19T13:41:27;8.40;;;4.60;;
77217;SDS011;66214;51.302;17.068;2023-11-19T13:43:55;8.50;;;3.80;;
77217;SDS011;66214;51.302;17.068;2023-11-19T13:46:23;9.80;;;4.20;;
77217;SDS011;66214;51.302;17.068;2023-11-19T13:48:52;9.60;;;4.50;;
77217;SDS011;66214;51.302;17.068;2023-11-19T13:51:20;7.50;;;3.50;;
77217;SDS011;66214;51.302;17.068;2023-11-19T13:53:48;9.80;;;4.80;;
77217;SDS011;66214;51.302;17.068;2023-11-19T13:56:17;6.70;;;3.20;;
77217;SDS011;66214;51.302;17.068;2023-11-19T13:58:45;11.50;;;4.40;;
77217;SDS011;66214;51.302;17.068;2023-11-19T14:01:13;9.50;;;4.00;;
77217;SDS011;66214;51.302;17.068;2023-11-19T14:03:42;9.60;;;3.70;;
77217;SDS011;66214;51.302;17.068;2023-11-19T14:06:10;12.80;;;5.80;;
77217;SDS011;66214;51.302;17.068;2023-11-19T14:08:40;11.70;;;5.40;;
77217;SDS011;66214;51.302;17.068;2023-11-19T14:11:36;9.60;;;4.50;;
77217;SDS011;66214;51.302;17.068;2023-11-19T14:14:04;11.20;;;4.90;;
77217;SDS011;66214;51.302;17.068;2023-11-19T14:16:32;10.20;;;3.90;;
77217;SDS011;66214;51.302;17.068;2023-11-19T14:19:02;9.50;;;4.60;;
77217;SDS011;66214;51.302;17.068;2023-11-19T14:21:30;12.70;;;5.20;;
77217;SDS011;66214;51.302;17.068;2023-11-19T14:23:59;12.00;;;5.50;;
77217;SDS011;66214;51.302;17.068;2023-11-19T14:26:27;9.40;;;4.50;;
77217;SDS011;66214;51.302;17.068;2023-11-19T14:28:55;12.10;;;5.10;;
77217;SDS011;66214;51.302;17.068;2023-11-19T14:31:23;10.80;;;5.00;;
77217;SDS011;66214;51.302;17.068;2023-11-19T14:33:51;9.30;;;4.20;;
77217;SDS011;66214;51.302;17.068;2023-11-19T14:36:19;8.70;;;4.10;;
77217;SDS011;66214;51.302;17.068;2023-11-19T14:38:49;9.10;;;3.70;;
77217;SDS011;66214;51.302;17.068;2023-11-19T14:41:19;9.50;;;3.60;;
77217;SDS011;66214;51.302;17.068;2023-11-19T14:43:47;12.10;;;4.80;;
77217;SDS011;66214;51.302;17.068;2023-11-19T14:46:16;8.00;;;4.10;;
77217;SDS011;66214;51.302;17.068;2023-11-19T14:48:44;8.90;;;4.90;;
77217;SDS011;66214;51.302;17.068;2023-11-19T14:51:12;9.00;;;4.40;;
77217;SDS011;66214;51.302;17.068;2023-11-19T14:53:41;12.30;;;5.30;;
77217;SDS011;66214;51.302;17.068;2023-11-19T14:56:12;10.40;;;4.60;;
77217;SDS011;66214;51.302;17.068;2023-11-19T14:58:41;9.60;;;4.50;;
77217;SDS011;66214;51.302;17.068;2023-11-19T15:01:13;10.90;;;4.60;;
77217;SDS011;66214;51.302;17.068;2023-11-19T15:03:42;10.60;;;4.50;;
77217;SDS011;66214;51.302;17.068;2023-11-19T15:06:10;9.70;;;4.70;;
77217;SDS011;66214;51.302;17.068;2023-11-19T15:08:39;10.10;;;4.80;;
77217;SDS011;66214;51.302;17.068;2023-11-19T15:14:42;10.10;;;3.90;;
77217;SDS011;66214;51.302;17.068;2023-11-19T15:17:08;12.90;;;5.40;;
77217;SDS011;66214;51.302;17.068;2023-11-19T15:19:35;11.20;;;5.70;;
77217;SDS011;66214;51.302;17.068;2023-11-19T15:22:02;13.10;;;5.70;;
77217;SDS011;66214;51.302;17.068;2023-11-19T15:24:31;12.30;;;5.10;;
77217;SDS011;66214;51.302;17.068;2023-11-19T15:26:58;10.50;;;4.60;;
77217;SDS011;66214;51.302;17.068;2023-11-19T15:29:25;11.20;;;5.60;;
77217;SDS011;66214;51.302;17.068;2023-11-19T15:31:52;12.20;;;5.30;;
77217;SDS011;66214;51.302;17.068;2023-11-19T15:34:18;13.10;;;6.20;;
77217;SDS011;66214;51.302;17.068;2023-11-19T15:36:46;11.00;;;5.30;;
77217;SDS011;66214;51.302;17.068;2023-11-19T15:39:13;15.40;;;7.40;;
77217;SDS011;66214;51.302;17.068;2023-11-19T15:41:40;12.60;;;5.70;;
77217;SDS011;66214;51.302;17.068;2023-11-19T15:44:06;13.40;;;6.30;;
77217;SDS011;66214;51.302;17.068;2023-11-19T15:46:34;12.10;;;6.10;;
77217;SDS011;66214;51.302;17.068;2023-11-19T15:49:01;15.70;;;6.40;;
77217;SDS011;66214;51.302;17.068;2023-11-19T15:51:29;13.60;;;6.00;;
77217;SDS011;66214;51.302;17.068;2023-11-19T15:53:55;13.00;;;6.30;;
77217;SDS011;66214;51.302;17.068;2023-11-19T15:56:22;11.30;;;5.50;;
77217;SDS011;66214;51.302;17.068;2023-11-19T15:58:49;12.90;;;5.40;;
77217;SDS011;66214;51.302;17.068;2023-11-19T16:01:18;13.50;;;6.10;;
77217;SDS011;66214;51.302;17.068;2023-11-19T16:03:45;12.10;;;5.40;;
77217;SDS011;66214;51.302;17.068;2023-11-19T16:06:12;15.30;;;6.90;;
77217;SDS011;66214;51.302;17.068;2023-11-19T16:08:39;15.40;;;6.30;;
77217;SDS011;66214;51.302;17.068;2023-11-19T16:11:06;17.20;;;7.20;;
77217;SDS011;66214;51.302;17.068;2023-11-19T16:13:34;15.00;;;7.80;;
77217;SDS011;66214;51.302;17.068;2023-11-19T16:16:01;17.40;;;7.50;;
77217;SDS011;66214;51.302;17.068;2023-11-19T16:18:28;14.40;;;6.00;;
77217;SDS011;66214;51.302;17.068;2023-11-19T16:20:54;16.50;;;8.30;;
77217;SDS011;66214;51.302;17.068;2023-11-19T16:23:22;16.10;;;7.50;;
77217;SDS011;66214;51.302;17.068;2023-11-19T16:25:48;14.20;;;7.40;;
77217;SDS011;66214;51.302;17.068;2023-11-19T16:28:16;20.10;;;9.20;;
77217;SDS011;66214;51.302;17.068;2023-11-19T16:30:43;17.80;;;7.70;;
77217;SDS011;66214;51.302;17.068;2023-11-19T16:33:11;19.70;;;8.40;;
77217;SDS011;66214;51.302;17.068;2023-11-19T16:35:37;17.20;;;9.20;;
77217;SDS011;66214;51.302;17.068;2023-11-19T16:38:04;15.00;;;6.90;;
77217;SDS011;66214;51.302;17.068;2023-11-19T16:40:32;14.40;;;6.60;;
77217;SDS011;66214;51.302;17.068;2023-11-19T16:43:05;12.90;;;5.60;;
77217;SDS011;66214;51.302;17.068;2023-11-19T16:45:32;19.30;;;8.50;;
77217;SDS011;66214;51.302;17.068;2023-11-19T16:47:59;16.80;;;7.20;;
77217;SDS011;66214;51.302;17.068;2023-11-19T16:50:27;29.40;;;12.50;;
77217;SDS011;66214;51.302;17.068;2023-11-19T16:52:55;42.40;;;18.90;;
77217;SDS011;66214;51.302;17.068;2023-11-19T16:55:21;46.30;;;18.30;;
77217;SDS011;66214;51.302;17.068;2023-11-19T16:57:48;21.80;;;9.80;;